sensor_id;sensor_type;location;lat;lon;timestamp;P1;durP1;ratioP1;P2;durP2;ratioP2
49458;SDS011;35354;51.296;16.924;2023-02-15T00:01:05;68.70;;;39.92;;
49458;SDS011;35354;51.296;16.924;2023-02-15T00:03:31;74.00;;;40.88;;
49458;SDS011;35354;51.296;16.924;2023-02-15T00:05:57;71.38;;;37.85;;
49458;SDS011;35354;51.296;16.924;2023-02-15T00:08:23;62.38;;;35.92;;
49458;SDS011;35354;51.296;16.924;2023-02-15T00:10:48;66.28;;;38.35;;
49458;SDS011;35354;51.296;16.924;2023-02-15T00:13:13;64.93;;;39.95;;
49458;SDS011;35354;51.296;16.924;2023-02-15T00:15:39;70.07;;;39.70;;
49458;SDS011;35354;51.296;16.924;2023-02-15T00:18:04;73.63;;;40.47;;
49458;SDS011;35354;51.296;16.924;2023-02-15T00:20:29;62.95;;;36.67;;
49458;SDS011;35354;51.296;16.924;2023-02-15T00:22:55;61.75;;;34.33;;
49458;SDS011;35354;51.296;16.924;2023-02-15T00:25:20;63.58;;;32.80;;
49458;SDS011;35354;51.296;16.924;2023-02-15T00:27:45;61.28;;;35.55;;
49458;SDS011;35354;51.296;16.924;2023-02-15T00:30:11;62.53;;;35.85;;
49458;SDS011;35354;51.296;16.924;2023-02-15T00:32:36;63.63;;;31.58;;
49458;SDS011;35354;51.296;16.924;2023-02-15T00:35:02;59.83;;;31.40;;
49458;SDS011;35354;51.296;16.924;2023-02-15T00:37:27;56.90;;;33.03;;
49458;SDS011;35354;51.296;16.924;2023-02-15T00:39:52;58.22;;;30.52;;
49458;SDS011;35354;51.296;16.924;2023-02-15T00:42:18;56.33;;;30.30;;
49458;SDS011;35354;51.296;16.924;2023-02-15T00:44:43;55.17;;;31.25;;
49458;SDS011;35354;51.296;16.924;2023-02-15T00:47:08;61.90;;;32.08;;
49458;SDS011;35354;51.296;16.924;2023-02-15T00:49:33;53.33;;;30.85;;
49458;SDS011;35354;51.296;16.924;2023-02-15T00:51:59;62.90;;;35.75;;
49458;SDS011;35354;51.296;16.924;2023-02-15T00:54:24;68.85;;;39.30;;
49458;SDS011;35354;51.296;16.924;2023-02-15T00:56:49;56.05;;;35.90;;
49458;SDS011;35354;51.296;16.924;2023-02-15T00:59:15;53.05;;;29.92;;
49458;SDS011;35354;51.296;16.924;2023-02-15T01:01:40;53.85;;;30.45;;
49458;SDS011;35354;51.296;16.924;2023-02-15T01:04:05;47.42;;;27.98;;
49458;SDS011;35354;51.296;16.924;2023-02-15T01:06:31;55.97;;;29.88;;
49458;SDS011;35354;51.296;16.924;2023-02-15T01:08:56;56.30;;;32.10;;
49458;SDS011;35354;51.296;16.924;2023-02-15T01:11:22;51.70;;;29.08;;
49458;SDS011;35354;51.296;16.924;2023-02-15T01:13:48;51.40;;;31.23;;
49458;SDS011;35354;51.296;16.924;2023-02-15T01:16:15;56.17;;;30.48;;
49458;SDS011;35354;51.296;16.924;2023-02-15T01:18:41;52.65;;;29.67;;
49458;SDS011;35354;51.296;16.924;2023-02-15T01:21:12;52.67;;;29.85;;
49458;SDS011;35354;51.296;16.924;2023-02-15T01:23:39;51.72;;;30.30;;
49458;SDS011;35354;51.296;16.924;2023-02-15T01:26:06;53.33;;;30.80;;
49458;SDS011;35354;51.296;16.924;2023-02-15T01:28:31;56.45;;;33.58;;
49458;SDS011;35354;51.296;16.924;2023-02-15T01:30:57;61.80;;;35.28;;
49458;SDS011;35354;51.296;16.924;2023-02-15T01:33:24;60.50;;;35.55;;
49458;SDS011;35354;51.296;16.924;2023-02-15T01:35:49;55.95;;;32.72;;
49458;SDS011;35354;51.296;16.924;2023-02-15T01:38:21;54.33;;;32.60;;
49458;SDS011;35354;51.296;16.924;2023-02-15T01:40:46;58.20;;;33.47;;
49458;SDS011;35354;51.296;16.924;2023-02-15T01:43:12;54.00;;;32.28;;
49458;SDS011;35354;51.296;16.924;2023-02-15T01:45:38;56.70;;;33.20;;
49458;SDS011;35354;51.296;16.924;2023-02-15T01:50:38;61.95;;;34.30;;
49458;SDS011;35354;51.296;16.924;2023-02-15T01:55:48;73.72;;;42.75;;
49458;SDS011;35354;51.296;16.924;2023-02-15T01:58:19;65.38;;;36.95;;
49458;SDS011;35354;51.296;16.924;2023-02-15T02:00:46;68.70;;;41.95;;
49458;SDS011;35354;51.296;16.924;2023-02-15T02:03:11;68.82;;;37.58;;
49458;SDS011;35354;51.296;16.924;2023-02-15T02:05:38;70.10;;;37.33;;
49458;SDS011;35354;51.296;16.924;2023-02-15T02:08:04;64.82;;;37.25;;
49458;SDS011;35354;51.296;16.924;2023-02-15T02:10:31;62.25;;;36.08;;
49458;SDS011;35354;51.296;16.924;2023-02-15T02:13:00;67.35;;;34.53;;
49458;SDS011;35354;51.296;16.924;2023-02-15T02:15:33;61.35;;;35.08;;
49458;SDS011;35354;51.296;16.924;2023-02-15T02:21:16;62.33;;;33.88;;
49458;SDS011;35354;51.296;16.924;2023-02-15T02:29:31;67.38;;;33.00;;
49458;SDS011;35354;51.296;16.924;2023-02-15T02:35:03;59.42;;;34.38;;
49458;SDS011;35354;51.296;16.924;2023-02-15T02:43:09;65.82;;;35.33;;
49458;SDS011;35354;51.296;16.924;2023-02-15T02:45:47;60.00;;;36.50;;
49458;SDS011;35354;51.296;16.924;2023-02-15T02:48:22;62.38;;;33.20;;
49458;SDS011;35354;51.296;16.924;2023-02-15T02:50:51;62.05;;;33.38;;
49458;SDS011;35354;51.296;16.924;2023-02-15T02:53:17;59.10;;;33.72;;
49458;SDS011;35354;51.296;16.924;2023-02-15T02:55:59;55.55;;;31.55;;
49458;SDS011;35354;51.296;16.924;2023-02-15T03:01:13;59.05;;;31.58;;
49458;SDS011;35354;51.296;16.924;2023-02-15T03:03:46;61.08;;;33.55;;
49458;SDS011;35354;51.296;16.924;2023-02-15T03:06:50;55.08;;;33.88;;
49458;SDS011;35354;51.296;16.924;2023-02-15T03:09:22;57.55;;;30.80;;
49458;SDS011;35354;51.296;16.924;2023-02-15T03:11:59;54.25;;;29.25;;
49458;SDS011;35354;51.296;16.924;2023-02-15T03:14:26;55.67;;;30.30;;
49458;SDS011;35354;51.296;16.924;2023-02-15T03:16:52;59.80;;;35.30;;
49458;SDS011;35354;51.296;16.924;2023-02-15T03:19:22;62.63;;;35.83;;
49458;SDS011;35354;51.296;16.924;2023-02-15T03:21:53;61.90;;;34.65;;
49458;SDS011;35354;51.296;16.924;2023-02-15T03:24:32;57.95;;;33.88;;
49458;SDS011;35354;51.296;16.924;2023-02-15T03:26:59;57.22;;;34.00;;
49458;SDS011;35354;51.296;16.924;2023-02-15T03:29:30;53.08;;;31.83;;
49458;SDS011;35354;51.296;16.924;2023-02-15T03:31:58;58.22;;;33.67;;
49458;SDS011;35354;51.296;16.924;2023-02-15T03:34:26;59.13;;;33.28;;
49458;SDS011;35354;51.296;16.924;2023-02-15T03:36:55;54.83;;;31.90;;
49458;SDS011;35354;51.296;16.924;2023-02-15T03:45:08;53.25;;;30.85;;
49458;SDS011;35354;51.296;16.924;2023-02-15T03:47:40;56.92;;;31.55;;
49458;SDS011;35354;51.296;16.924;2023-02-15T03:50:19;58.50;;;35.20;;
49458;SDS011;35354;51.296;16.924;2023-02-15T03:53:07;55.88;;;33.47;;
49458;SDS011;35354;51.296;16.924;2023-02-15T03:55:35;55.95;;;34.55;;
49458;SDS011;35354;51.296;16.924;2023-02-15T03:58:01;58.28;;;32.47;;
49458;SDS011;35354;51.296;16.924;2023-02-15T04:00:58;54.10;;;31.55;;
49458;SDS011;35354;51.296;16.924;2023-02-15T04:03:51;51.33;;;32.45;;
49458;SDS011;35354;51.296;16.924;2023-02-15T04:06:22;52.97;;;30.42;;
49458;SDS011;35354;51.296;16.924;2023-02-15T04:08:47;55.53;;;31.88;;
49458;SDS011;35354;51.296;16.924;2023-02-15T04:11:31;50.85;;;27.77;;
49458;SDS011;35354;51.296;16.924;2023-02-15T04:13:57;57.80;;;30.17;;
49458;SDS011;35354;51.296;16.924;2023-02-15T04:16:22;57.30;;;29.88;;
49458;SDS011;35354;51.296;16.924;2023-02-15T04:18:48;62.40;;;32.88;;
49458;SDS011;35354;51.296;16.924;2023-02-15T04:21:32;59.47;;;33.10;;
49458;SDS011;35354;51.296;16.924;2023-02-15T04:24:16;55.10;;;30.30;;
49458;SDS011;35354;51.296;16.924;2023-02-15T04:27:01;57.78;;;29.60;;
49458;SDS011;35354;51.296;16.924;2023-02-15T04:29:27;60.45;;;31.38;;
49458;SDS011;35354;51.296;16.924;2023-02-15T04:31:54;55.45;;;31.67;;
49458;SDS011;35354;51.296;16.924;2023-02-15T04:34:22;72.80;;;44.35;;
49458;SDS011;35354;51.296;16.924;2023-02-15T04:36:47;55.33;;;35.95;;
49458;SDS011;35354;51.296;16.924;2023-02-15T04:39:13;58.47;;;33.60;;
49458;SDS011;35354;51.296;16.924;2023-02-15T04:41:40;52.83;;;29.45;;
49458;SDS011;35354;51.296;16.924;2023-02-15T04:44:05;52.22;;;32.47;;
49458;SDS011;35354;51.296;16.924;2023-02-15T04:46:31;49.28;;;30.55;;
49458;SDS011;35354;51.296;16.924;2023-02-15T04:48:56;45.28;;;27.10;;
49458;SDS011;35354;51.296;16.924;2023-02-15T04:51:22;47.75;;;28.58;;
49458;SDS011;35354;51.296;16.924;2023-02-15T04:53:47;47.67;;;29.23;;
49458;SDS011;35354;51.296;16.924;2023-02-15T04:56:13;41.63;;;25.52;;
49458;SDS011;35354;51.296;16.924;2023-02-15T04:58:38;51.22;;;28.48;;
49458;SDS011;35354;51.296;16.924;2023-02-15T05:01:06;55.88;;;30.33;;
49458;SDS011;35354;51.296;16.924;2023-02-15T05:03:31;49.17;;;30.13;;
49458;SDS011;35354;51.296;16.924;2023-02-15T05:05:57;46.45;;;28.88;;
49458;SDS011;35354;51.296;16.924;2023-02-15T05:08:22;52.17;;;29.45;;
49458;SDS011;35354;51.296;16.924;2023-02-15T05:10:48;53.25;;;32.03;;
49458;SDS011;35354;51.296;16.924;2023-02-15T05:13:14;58.00;;;31.73;;
49458;SDS011;35354;51.296;16.924;2023-02-15T05:15:39;56.28;;;30.95;;
49458;SDS011;35354;51.296;16.924;2023-02-15T05:18:05;58.85;;;32.78;;
49458;SDS011;35354;51.296;16.924;2023-02-15T05:20:32;60.72;;;33.28;;
49458;SDS011;35354;51.296;16.924;2023-02-15T05:22:58;58.05;;;34.13;;
49458;SDS011;35354;51.296;16.924;2023-02-15T05:25:23;57.13;;;32.13;;
49458;SDS011;35354;51.296;16.924;2023-02-15T05:28:08;55.92;;;30.25;;
49458;SDS011;35354;51.296;16.924;2023-02-15T05:30:44;60.35;;;32.63;;
49458;SDS011;35354;51.296;16.924;2023-02-15T05:33:10;63.53;;;34.28;;
49458;SDS011;35354;51.296;16.924;2023-02-15T05:35:35;62.97;;;34.92;;
49458;SDS011;35354;51.296;16.924;2023-02-15T05:38:01;63.65;;;34.55;;
49458;SDS011;35354;51.296;16.924;2023-02-15T05:40:26;62.92;;;34.25;;
49458;SDS011;35354;51.296;16.924;2023-02-15T05:42:51;63.47;;;34.97;;
49458;SDS011;35354;51.296;16.924;2023-02-15T05:45:17;66.30;;;36.72;;
49458;SDS011;35354;51.296;16.924;2023-02-15T05:47:42;72.82;;;38.35;;
49458;SDS011;35354;51.296;16.924;2023-02-15T05:50:08;71.03;;;37.15;;
49458;SDS011;35354;51.296;16.924;2023-02-15T05:52:34;72.10;;;36.15;;
49458;SDS011;35354;51.296;16.924;2023-02-15T05:55:00;70.82;;;37.53;;
49458;SDS011;35354;51.296;16.924;2023-02-15T05:57:27;71.28;;;38.03;;
49458;SDS011;35354;51.296;16.924;2023-02-15T05:59:52;66.78;;;36.70;;
49458;SDS011;35354;51.296;16.924;2023-02-15T06:02:17;68.40;;;38.10;;
49458;SDS011;35354;51.296;16.924;2023-02-15T06:04:43;74.40;;;38.05;;
49458;SDS011;35354;51.296;16.924;2023-02-15T06:07:08;71.18;;;37.92;;
49458;SDS011;35354;51.296;16.924;2023-02-15T06:09:34;70.03;;;38.15;;
49458;SDS011;35354;51.296;16.924;2023-02-15T06:11:59;74.50;;;39.35;;
49458;SDS011;35354;51.296;16.924;2023-02-15T06:14:25;77.10;;;42.17;;
49458;SDS011;35354;51.296;16.924;2023-02-15T06:16:50;84.40;;;41.95;;
49458;SDS011;35354;51.296;16.924;2023-02-15T06:19:16;75.03;;;40.35;;
49458;SDS011;35354;51.296;16.924;2023-02-15T06:21:41;70.30;;;38.28;;
49458;SDS011;35354;51.296;16.924;2023-02-15T06:24:10;73.97;;;39.75;;
49458;SDS011;35354;51.296;16.924;2023-02-15T06:26:35;79.07;;;39.78;;
49458;SDS011;35354;51.296;16.924;2023-02-15T06:29:01;79.75;;;42.35;;
49458;SDS011;35354;51.296;16.924;2023-02-15T06:31:26;83.93;;;40.38;;
49458;SDS011;35354;51.296;16.924;2023-02-15T06:33:51;84.50;;;41.95;;
49458;SDS011;35354;51.296;16.924;2023-02-15T06:36:17;79.45;;;40.67;;
49458;SDS011;35354;51.296;16.924;2023-02-15T06:38:42;79.82;;;41.63;;
49458;SDS011;35354;51.296;16.924;2023-02-15T06:41:07;75.90;;;42.65;;
49458;SDS011;35354;51.296;16.924;2023-02-15T06:43:33;81.35;;;42.40;;
49458;SDS011;35354;51.296;16.924;2023-02-15T06:45:59;84.45;;;41.88;;
49458;SDS011;35354;51.296;16.924;2023-02-15T06:48:25;85.63;;;44.35;;
49458;SDS011;35354;51.296;16.924;2023-02-15T06:50:50;78.28;;;42.00;;
49458;SDS011;35354;51.296;16.924;2023-02-15T06:53:16;78.72;;;43.20;;
49458;SDS011;35354;51.296;16.924;2023-02-15T06:55:42;74.78;;;39.78;;
49458;SDS011;35354;51.296;16.924;2023-02-15T06:58:07;74.03;;;38.80;;
49458;SDS011;35354;51.296;16.924;2023-02-15T07:00:32;74.07;;;41.17;;
49458;SDS011;35354;51.296;16.924;2023-02-15T07:02:58;72.47;;;39.08;;
49458;SDS011;35354;51.296;16.924;2023-02-15T07:05:24;70.20;;;39.95;;
49458;SDS011;35354;51.296;16.924;2023-02-15T07:07:55;65.00;;;37.13;;
49458;SDS011;35354;51.296;16.924;2023-02-15T07:10:21;70.45;;;38.38;;
49458;SDS011;35354;51.296;16.924;2023-02-15T07:12:46;65.63;;;35.20;;
49458;SDS011;35354;51.296;16.924;2023-02-15T07:15:15;66.72;;;37.17;;
49458;SDS011;35354;51.296;16.924;2023-02-15T07:17:42;71.13;;;39.58;;
49458;SDS011;35354;51.296;16.924;2023-02-15T07:20:19;59.63;;;36.63;;
49458;SDS011;35354;51.296;16.924;2023-02-15T07:22:46;66.47;;;37.97;;
49458;SDS011;35354;51.296;16.924;2023-02-15T07:25:12;65.18;;;37.95;;
49458;SDS011;35354;51.296;16.924;2023-02-15T07:27:38;63.20;;;36.65;;
49458;SDS011;35354;51.296;16.924;2023-02-15T07:30:05;57.72;;;35.17;;
49458;SDS011;35354;51.296;16.924;2023-02-15T07:32:32;59.95;;;36.05;;
49458;SDS011;35354;51.296;16.924;2023-02-15T07:34:58;59.45;;;36.25;;
49458;SDS011;35354;51.296;16.924;2023-02-15T07:37:24;60.55;;;36.72;;
49458;SDS011;35354;51.296;16.924;2023-02-15T07:39:50;59.17;;;37.00;;
49458;SDS011;35354;51.296;16.924;2023-02-15T07:42:15;61.97;;;35.85;;
49458;SDS011;35354;51.296;16.924;2023-02-15T07:44:40;55.72;;;35.50;;
49458;SDS011;35354;51.296;16.924;2023-02-15T07:47:06;57.42;;;33.88;;
49458;SDS011;35354;51.296;16.924;2023-02-15T07:49:31;54.92;;;32.70;;
49458;SDS011;35354;51.296;16.924;2023-02-15T07:51:56;54.92;;;34.35;;
49458;SDS011;35354;51.296;16.924;2023-02-15T07:54:22;51.38;;;32.15;;
49458;SDS011;35354;51.296;16.924;2023-02-15T07:56:47;53.40;;;33.20;;
49458;SDS011;35354;51.296;16.924;2023-02-15T07:59:13;56.10;;;33.20;;
49458;SDS011;35354;51.296;16.924;2023-02-15T08:01:38;54.85;;;34.80;;
49458;SDS011;35354;51.296;16.924;2023-02-15T08:04:05;54.28;;;35.97;;
49458;SDS011;35354;51.296;16.924;2023-02-15T08:06:32;55.30;;;36.33;;
49458;SDS011;35354;51.296;16.924;2023-02-15T08:08:59;58.42;;;35.08;;
49458;SDS011;35354;51.296;16.924;2023-02-15T08:11:29;59.38;;;37.13;;
49458;SDS011;35354;51.296;16.924;2023-02-15T08:14:16;60.22;;;38.58;;
49458;SDS011;35354;51.296;16.924;2023-02-15T08:16:49;59.53;;;36.83;;
49458;SDS011;35354;51.296;16.924;2023-02-15T08:19:27;59.97;;;36.58;;
49458;SDS011;35354;51.296;16.924;2023-02-15T08:21:54;67.35;;;38.63;;
49458;SDS011;35354;51.296;16.924;2023-02-15T08:24:25;62.50;;;38.60;;
49458;SDS011;35354;51.296;16.924;2023-02-15T08:26:52;61.30;;;39.50;;
49458;SDS011;35354;51.296;16.924;2023-02-15T08:29:19;60.88;;;37.20;;
49458;SDS011;35354;51.296;16.924;2023-02-15T08:31:50;55.60;;;34.38;;
49458;SDS011;35354;51.296;16.924;2023-02-15T08:34:18;62.25;;;37.15;;
49458;SDS011;35354;51.296;16.924;2023-02-15T08:36:44;67.60;;;41.15;;
49458;SDS011;35354;51.296;16.924;2023-02-15T08:39:10;67.75;;;41.10;;
49458;SDS011;35354;51.296;16.924;2023-02-15T08:41:36;63.83;;;40.60;;
49458;SDS011;35354;51.296;16.924;2023-02-15T08:44:07;64.43;;;42.30;;
49458;SDS011;35354;51.296;16.924;2023-02-15T08:46:34;69.50;;;45.15;;
49458;SDS011;35354;51.296;16.924;2023-02-15T08:49:02;67.80;;;45.65;;
49458;SDS011;35354;51.296;16.924;2023-02-15T08:51:29;67.03;;;41.58;;
49458;SDS011;35354;51.296;16.924;2023-02-15T08:53:57;67.13;;;43.10;;
49458;SDS011;35354;51.296;16.924;2023-02-15T08:56:24;67.97;;;38.25;;
49458;SDS011;35354;51.296;16.924;2023-02-15T08:58:55;57.20;;;36.97;;
49458;SDS011;35354;51.296;16.924;2023-02-15T09:01:22;65.90;;;38.08;;
49458;SDS011;35354;51.296;16.924;2023-02-15T09:03:50;61.22;;;41.20;;
49458;SDS011;35354;51.296;16.924;2023-02-15T09:06:19;64.93;;;38.67;;
49458;SDS011;35354;51.296;16.924;2023-02-15T09:08:46;62.38;;;39.70;;
49458;SDS011;35354;51.296;16.924;2023-02-15T09:11:12;66.82;;;38.38;;
49458;SDS011;35354;51.296;16.924;2023-02-15T09:13:47;63.30;;;38.25;;
49458;SDS011;35354;51.296;16.924;2023-02-15T09:16:21;67.13;;;39.30;;
49458;SDS011;35354;51.296;16.924;2023-02-15T09:18:48;65.35;;;36.17;;
49458;SDS011;35354;51.296;16.924;2023-02-15T09:21:15;66.25;;;39.33;;
49458;SDS011;35354;51.296;16.924;2023-02-15T09:23:42;69.45;;;44.08;;
49458;SDS011;35354;51.296;16.924;2023-02-15T09:26:10;64.68;;;37.75;;
49458;SDS011;35354;51.296;16.924;2023-02-15T09:28:37;64.13;;;39.28;;
49458;SDS011;35354;51.296;16.924;2023-02-15T09:31:16;70.90;;;41.20;;
49458;SDS011;35354;51.296;16.924;2023-02-15T09:33:44;66.70;;;39.28;;
49458;SDS011;35354;51.296;16.924;2023-02-15T09:38:47;68.53;;;38.83;;
49458;SDS011;35354;51.296;16.924;2023-02-15T09:49:33;54.58;;;37.53;;
49458;SDS011;35354;51.296;16.924;2023-02-15T09:52:26;63.50;;;36.85;;
49458;SDS011;35354;51.296;16.924;2023-02-15T10:03:19;51.88;;;33.45;;
49458;SDS011;35354;51.296;16.924;2023-02-15T10:06:18;55.28;;;35.53;;
49458;SDS011;35354;51.296;16.924;2023-02-15T10:25:43;59.25;;;35.65;;
49458;SDS011;35354;51.296;16.924;2023-02-15T10:28:17;55.50;;;31.83;;
49458;SDS011;35354;51.296;16.924;2023-02-15T10:30:47;52.78;;;31.23;;
49458;SDS011;35354;51.296;16.924;2023-02-15T10:33:25;53.42;;;32.65;;
49458;SDS011;35354;51.296;16.924;2023-02-15T10:57:42;57.38;;;35.50;;
49458;SDS011;35354;51.296;16.924;2023-02-15T11:00:26;58.60;;;36.13;;
49458;SDS011;35354;51.296;16.924;2023-02-15T11:06:02;65.72;;;38.60;;
49458;SDS011;35354;51.296;16.924;2023-02-15T11:08:31;59.88;;;37.08;;
49458;SDS011;35354;51.296;16.924;2023-02-15T11:11:04;63.60;;;40.78;;
49458;SDS011;35354;51.296;16.924;2023-02-15T11:13:38;57.58;;;37.55;;
49458;SDS011;35354;51.296;16.924;2023-02-15T11:16:14;63.65;;;41.85;;
49458;SDS011;35354;51.296;16.924;2023-02-15T11:18:43;59.55;;;39.22;;
49458;SDS011;35354;51.296;16.924;2023-02-15T11:21:22;68.75;;;38.83;;
49458;SDS011;35354;51.296;16.924;2023-02-15T11:23:48;53.30;;;36.78;;
49458;SDS011;35354;51.296;16.924;2023-02-15T11:26:34;59.63;;;39.25;;
49458;SDS011;35354;51.296;16.924;2023-02-15T11:29:13;51.47;;;37.10;;
49458;SDS011;35354;51.296;16.924;2023-02-15T11:31:49;61.42;;;38.08;;
49458;SDS011;35354;51.296;16.924;2023-02-15T11:34:20;53.58;;;35.70;;
49458;SDS011;35354;51.296;16.924;2023-02-15T11:36:50;61.38;;;40.50;;
49458;SDS011;35354;51.296;16.924;2023-02-15T11:39:19;63.08;;;40.75;;
49458;SDS011;35354;51.296;16.924;2023-02-15T11:41:47;56.65;;;36.20;;
49458;SDS011;35354;51.296;16.924;2023-02-15T11:44:23;56.85;;;35.95;;
49458;SDS011;35354;51.296;16.924;2023-02-15T11:46:54;56.30;;;35.28;;
49458;SDS011;35354;51.296;16.924;2023-02-15T11:51:51;51.00;;;34.58;;
49458;SDS011;35354;51.296;16.924;2023-02-15T11:54:19;65.07;;;39.08;;
49458;SDS011;35354;51.296;16.924;2023-02-15T11:56:50;63.00;;;36.67;;
49458;SDS011;35354;51.296;16.924;2023-02-15T11:59:18;56.33;;;37.53;;
49458;SDS011;35354;51.296;16.924;2023-02-15T12:01:52;60.38;;;36.58;;
49458;SDS011;35354;51.296;16.924;2023-02-15T12:07:21;63.92;;;38.03;;
49458;SDS011;35354;51.296;16.924;2023-02-15T12:10:13;59.33;;;38.10;;
49458;SDS011;35354;51.296;16.924;2023-02-15T12:12:42;56.58;;;34.70;;
49458;SDS011;35354;51.296;16.924;2023-02-15T12:15:08;56.67;;;36.47;;
49458;SDS011;35354;51.296;16.924;2023-02-15T12:17:38;55.33;;;32.67;;
49458;SDS011;35354;51.296;16.924;2023-02-15T12:22:40;59.30;;;33.10;;
49458;SDS011;35354;51.296;16.924;2023-02-15T12:25:33;57.90;;;34.72;;
49458;SDS011;35354;51.296;16.924;2023-02-15T12:27:59;52.67;;;33.70;;
49458;SDS011;35354;51.296;16.924;2023-02-15T12:30:27;48.90;;;29.23;;
49458;SDS011;35354;51.296;16.924;2023-02-15T12:32:57;50.17;;;32.60;;
49458;SDS011;35354;51.296;16.924;2023-02-15T12:35:40;45.25;;;31.33;;
49458;SDS011;35354;51.296;16.924;2023-02-15T12:40:36;48.33;;;30.73;;
49458;SDS011;35354;51.296;16.924;2023-02-15T12:43:02;48.67;;;28.92;;
49458;SDS011;35354;51.296;16.924;2023-02-15T12:45:34;45.55;;;26.60;;
49458;SDS011;35354;51.296;16.924;2023-02-15T12:50:39;40.38;;;29.02;;
49458;SDS011;35354;51.296;16.924;2023-02-15T12:53:22;48.10;;;30.50;;
49458;SDS011;35354;51.296;16.924;2023-02-15T12:56:03;45.80;;;30.40;;
49458;SDS011;35354;51.296;16.924;2023-02-15T12:58:31;49.55;;;32.75;;
49458;SDS011;35354;51.296;16.924;2023-02-15T13:01:14;49.65;;;30.35;;
49458;SDS011;35354;51.296;16.924;2023-02-15T13:03:54;52.05;;;33.05;;
49458;SDS011;35354;51.296;16.924;2023-02-15T13:06:22;48.97;;;30.93;;
49458;SDS011;35354;51.296;16.924;2023-02-15T13:08:55;54.03;;;34.13;;
49458;SDS011;35354;51.296;16.924;2023-02-15T13:11:28;58.50;;;32.38;;
49458;SDS011;35354;51.296;16.924;2023-02-15T13:14:03;46.17;;;31.15;;
49458;SDS011;35354;51.296;16.924;2023-02-15T13:16:41;48.30;;;31.02;;
49458;SDS011;35354;51.296;16.924;2023-02-15T13:19:15;49.78;;;33.08;;
49458;SDS011;35354;51.296;16.924;2023-02-15T13:21:45;45.38;;;31.83;;
49458;SDS011;35354;51.296;16.924;2023-02-15T13:24:23;46.50;;;32.40;;
49458;SDS011;35354;51.296;16.924;2023-02-15T13:26:52;47.85;;;29.08;;
49458;SDS011;35354;51.296;16.924;2023-02-15T13:29:27;47.15;;;30.90;;
49458;SDS011;35354;51.296;16.924;2023-02-15T13:31:55;42.80;;;29.02;;
49458;SDS011;35354;51.296;16.924;2023-02-15T13:34:28;52.25;;;30.65;;
49458;SDS011;35354;51.296;16.924;2023-02-15T13:40:02;48.75;;;28.67;;
49458;SDS011;35354;51.296;16.924;2023-02-15T13:42:38;52.03;;;32.92;;
49458;SDS011;35354;51.296;16.924;2023-02-15T13:47:53;51.35;;;33.03;;
49458;SDS011;35354;51.296;16.924;2023-02-15T13:50:30;58.58;;;36.30;;
49458;SDS011;35354;51.296;16.924;2023-02-15T13:55:44;54.67;;;35.88;;
49458;SDS011;35354;51.296;16.924;2023-02-15T14:01:17;55.85;;;34.75;;
49458;SDS011;35354;51.296;16.924;2023-02-15T14:15:09;60.88;;;34.28;;
49458;SDS011;35354;51.296;16.924;2023-02-15T14:20:21;60.53;;;34.80;;
49458;SDS011;35354;51.296;16.924;2023-02-15T14:25:39;54.88;;;37.10;;
49458;SDS011;35354;51.296;16.924;2023-02-15T14:30:39;70.60;;;42.85;;
49458;SDS011;35354;51.296;16.924;2023-02-15T14:35:58;54.33;;;34.35;;
49458;SDS011;35354;51.296;16.924;2023-02-15T14:41:02;59.90;;;36.75;;
49458;SDS011;35354;51.296;16.924;2023-02-15T14:49:11;58.75;;;35.70;;
49458;SDS011;35354;51.296;16.924;2023-02-15T14:54:09;56.88;;;33.92;;
49458;SDS011;35354;51.296;16.924;2023-02-15T14:56:35;57.38;;;34.85;;
49458;SDS011;35354;51.296;16.924;2023-02-15T14:59:14;58.88;;;37.35;;
49458;SDS011;35354;51.296;16.924;2023-02-15T15:01:41;58.95;;;35.13;;
49458;SDS011;35354;51.296;16.924;2023-02-15T15:04:14;56.67;;;37.20;;
49458;SDS011;35354;51.296;16.924;2023-02-15T15:06:57;59.92;;;35.75;;
49458;SDS011;35354;51.296;16.924;2023-02-15T15:09:27;90.32;;;55.72;;
49458;SDS011;35354;51.296;16.924;2023-02-15T15:12:14;85.95;;;54.00;;
49458;SDS011;35354;51.296;16.924;2023-02-15T15:22:47;116.85;;;58.33;;
49458;SDS011;35354;51.296;16.924;2023-02-15T15:28:02;190.15;;;78.97;;
49458;SDS011;35354;51.296;16.924;2023-02-15T15:32:57;70.45;;;41.22;;
49458;SDS011;35354;51.296;16.924;2023-02-15T15:43:50;58.63;;;38.00;;
49458;SDS011;35354;51.296;16.924;2023-02-15T15:49:17;71.43;;;43.05;;
49458;SDS011;35354;51.296;16.924;2023-02-15T15:51:45;68.53;;;41.70;;
49458;SDS011;35354;51.296;16.924;2023-02-15T15:54:15;112.25;;;58.08;;
49458;SDS011;35354;51.296;16.924;2023-02-15T15:59:51;71.53;;;47.10;;
49458;SDS011;35354;51.296;16.924;2023-02-15T16:02:18;76.20;;;48.88;;
49458;SDS011;35354;51.296;16.924;2023-02-15T16:04:46;79.07;;;52.22;;
49458;SDS011;35354;51.296;16.924;2023-02-15T16:12:29;71.47;;;42.78;;
49458;SDS011;35354;51.296;16.924;2023-02-15T16:14:56;73.03;;;47.75;;
49458;SDS011;35354;51.296;16.924;2023-02-15T16:17:27;68.00;;;43.70;;
49458;SDS011;35354;51.296;16.924;2023-02-15T16:22:43;79.38;;;49.47;;
49458;SDS011;35354;51.296;16.924;2023-02-15T16:27:46;124.68;;;75.75;;
49458;SDS011;35354;51.296;16.924;2023-02-15T16:33:06;155.02;;;83.85;;
49458;SDS011;35354;51.296;16.924;2023-02-15T16:36:01;141.07;;;77.22;;
49458;SDS011;35354;51.296;16.924;2023-02-15T16:41:08;151.02;;;78.70;;
49458;SDS011;35354;51.296;16.924;2023-02-15T16:43:36;161.13;;;80.63;;
49458;SDS011;35354;51.296;16.924;2023-02-15T16:46:03;125.18;;;67.18;;
49458;SDS011;35354;51.296;16.924;2023-02-15T16:48:31;120.47;;;64.45;;
49458;SDS011;35354;51.296;16.924;2023-02-15T16:50:59;106.03;;;61.05;;
49458;SDS011;35354;51.296;16.924;2023-02-15T16:53:28;99.25;;;58.00;;
49458;SDS011;35354;51.296;16.924;2023-02-15T16:55:55;88.80;;;53.60;;
49458;SDS011;35354;51.296;16.924;2023-02-15T16:58:44;76.07;;;44.83;;
49458;SDS011;35354;51.296;16.924;2023-02-15T17:01:10;78.88;;;46.25;;
49458;SDS011;35354;51.296;16.924;2023-02-15T17:03:38;81.20;;;48.10;;
49458;SDS011;35354;51.296;16.924;2023-02-15T17:06:16;78.55;;;48.33;;
49458;SDS011;35354;51.296;16.924;2023-02-15T17:08:45;79.78;;;47.85;;
49458;SDS011;35354;51.296;16.924;2023-02-15T17:13:37;71.68;;;44.60;;
49458;SDS011;35354;51.296;16.924;2023-02-15T17:18:46;76.05;;;44.03;;
49458;SDS011;35354;51.296;16.924;2023-02-15T17:21:12;82.78;;;51.65;;
49458;SDS011;35354;51.296;16.924;2023-02-15T17:31:51;137.45;;;90.55;;
49458;SDS011;35354;51.296;16.924;2023-02-15T17:39:55;128.38;;;80.68;;
49458;SDS011;35354;51.296;16.924;2023-02-15T17:42:22;180.65;;;105.32;;
49458;SDS011;35354;51.296;16.924;2023-02-15T17:44:48;474.92;;;233.25;;
49458;SDS011;35354;51.296;16.924;2023-02-15T17:47:18;330.77;;;169.40;;
49458;SDS011;35354;51.296;16.924;2023-02-15T17:52:13;128.50;;;70.25;;
49458;SDS011;35354;51.296;16.924;2023-02-15T17:54:41;137.63;;;73.10;;
49458;SDS011;35354;51.296;16.924;2023-02-15T17:57:26;237.07;;;107.68;;